sensor_id;sensor_type;location;lat;lon;timestamp;P1;P2;P0
74333;PMS5003;62753;40.394;-80.022;2022-09-11T00:01:57;12;11;
74333;PMS5003;62753;40.394;-80.022;2022-09-11T00:04:22;12;11;
74333;PMS5003;62753;40.394;-80.022;2022-09-11T00:06:48;15;15;
74333;PMS5003;62753;40.394;-80.022;2022-09-11T00:09:14;13;12;
74333;PMS5003;62753;40.394;-80.022;2022-09-11T00:11:39;13;12;
74333;PMS5003;62753;40.394;-80.022;2022-09-11T00:14:03;14;12;
74333;PMS5003;62753;40.394;-80.022;2022-09-11T00:16:29;12;11;
74333;PMS5003;62753;40.394;-80.022;2022-09-11T00:18:56;15;14;
74333;PMS5003;62753;40.394;-80.022;2022-09-11T00:21:20;13;12;
74333;PMS5003;62753;40.394;-80.022;2022-09-11T00:23:45;12;12;
74333;PMS5003;62753;40.394;-80.022;2022-09-11T00:26:11;13;12;
74333;PMS5003;62753;40.394;-80.022;2022-09-11T00:28:36;13;13;
74333;PMS5003;62753;40.394;-80.022;2022-09-11T00:31:02;18;14;
74333;PMS5003;62753;40.394;-80.022;2022-09-11T00:33:26;15;14;
74333;PMS5003;62753;40.394;-80.022;2022-09-11T00:35:52;13;13;
74333;PMS5003;62753;40.394;-80.022;2022-09-11T00:38:17;14;13;
74333;PMS5003;62753;40.394;-80.022;2022-09-11T00:40:43;16;15;
74333;PMS5003;62753;40.394;-80.022;2022-09-11T00:43:08;16;16;
74333;PMS5003;62753;40.394;-80.022;2022-09-11T00:45:33;15;13;
74333;PMS5003;62753;40.394;-80.022;2022-09-11T00:47:58;14;13;
74333;PMS5003;62753;40.394;-80.022;2022-09-11T00:50:24;12;12;
74333;PMS5003;62753;40.394;-80.022;2022-09-11T00:52:50;12;12;
74333;PMS5003;62753;40.394;-80.022;2022-09-11T00:55:15;15;13;
74333;PMS5003;62753;40.394;-80.022;2022-09-11T00:57:40;12;8;
74333;PMS5003;62753;40.394;-80.022;2022-09-11T01:00:05;11;11;
74333;PMS5003;62753;40.394;-80.022;2022-09-11T01:02:30;11;10;
74333;PMS5003;62753;40.394;-80.022;2022-09-11T01:04:55;13;12;
74333;PMS5003;62753;40.394;-80.022;2022-09-11T01:07:20;11;11;
74333;PMS5003;62753;40.394;-80.022;2022-09-11T01:09:45;13;13;
74333;PMS5003;62753;40.394;-80.022;2022-09-11T01:12:11;11;10;
74333;PMS5003;62753;40.394;-80.022;2022-09-11T01:14:38;11;11;
74333;PMS5003;62753;40.394;-80.022;2022-09-11T01:17:04;12;10;
74333;PMS5003;62753;40.394;-80.022;2022-09-11T01:19:29;11;11;
74333;PMS5003;62753;40.394;-80.022;2022-09-11T01:21:57;11;11;
74333;PMS5003;62753;40.394;-80.022;2022-09-11T01:24:20;10;9;
74333;PMS5003;62753;40.394;-80.022;2022-09-11T01:26:46;11;11;
74333;PMS5003;62753;40.394;-80.022;2022-09-11T01:29:07;8;8;
74333;PMS5003;62753;40.394;-80.022;2022-09-11T01:31:34;12;12;
74333;PMS5003;62753;40.394;-80.022;2022-09-11T01:33:57;11;11;
74333;PMS5003;62753;40.394;-80.022;2022-09-11T01:36:24;12;12;
74333;PMS5003;62753;40.394;-80.022;2022-09-11T01:38:48;9;9;
74333;PMS5003;62753;40.394;-80.022;2022-09-11T01:41:13;11;11;
74333;PMS5003;62753;40.394;-80.022;2022-09-11T01:43:39;10;10;
74333;PMS5003;62753;40.394;-80.022;2022-09-11T01:46:03;14;14;
74333;PMS5003;62753;40.394;-80.022;2022-09-11T01:48:29;13;13;
74333;PMS5003;62753;40.394;-80.022;2022-09-11T01:50:53;11;10;
74333;PMS5003;62753;40.394;-80.022;2022-09-11T01:53:18;11;11;
74333;PMS5003;62753;40.394;-80.022;2022-09-11T01:55:44;12;12;
74333;PMS5003;62753;40.394;-80.022;2022-09-11T01:58:09;13;12;
74333;PMS5003;62753;40.394;-80.022;2022-09-11T02:00:34;13;12;
74333;PMS5003;62753;40.394;-80.022;2022-09-11T02:02:59;9;9;
74333;PMS5003;62753;40.394;-80.022;2022-09-11T02:05:26;12;11;
74333;PMS5003;62753;40.394;-80.022;2022-09-11T02:07:51;11;11;
74333;PMS5003;62753;40.394;-80.022;2022-09-11T02:10:15;11;11;
74333;PMS5003;62753;40.394;-80.022;2022-09-11T02:12:41;11;10;
74333;PMS5003;62753;40.394;-80.022;2022-09-11T02:15:05;12;10;
74333;PMS5003;62753;40.394;-80.022;2022-09-11T02:17:32;11;11;
74333;PMS5003;62753;40.394;-80.022;2022-09-11T02:19:56;12;10;
74333;PMS5003;62753;40.394;-80.022;2022-09-11T02:22:21;12;11;
74333;PMS5003;62753;40.394;-80.022;2022-09-11T02:24:46;12;12;
74333;PMS5003;62753;40.394;-80.022;2022-09-11T02:27:13;11;11;
74333;PMS5003;62753;40.394;-80.022;2022-09-11T02:29:37;12;12;
74333;PMS5003;62753;40.394;-80.022;2022-09-11T02:32:02;12;12;
74333;PMS5003;62753;40.394;-80.022;2022-09-11T02:34:28;13;12;
74333;PMS5003;62753;40.394;-80.022;2022-09-11T02:36:57;11;10;
74333;PMS5003;62753;40.394;-80.022;2022-09-11T02:39:25;10;10;
74333;PMS5003;62753;40.394;-80.022;2022-09-11T02:41:47;13;13;
74333;PMS5003;62753;40.394;-80.022;2022-09-11T02:44:11;12;12;
74333;PMS5003;62753;40.394;-80.022;2022-09-11T02:46:41;11;11;
74333;PMS5003;62753;40.394;-80.022;2022-09-11T02:49:02;11;11;
74333;PMS5003;62753;40.394;-80.022;2022-09-11T02:51:26;12;11;
74333;PMS5003;62753;40.394;-80.022;2022-09-11T02:53:51;11;11;
74333;PMS5003;62753;40.394;-80.022;2022-09-11T02:56:19;14;14;
74333;PMS5003;62753;40.394;-80.022;2022-09-11T02:58:42;13;13;
74333;PMS5003;62753;40.394;-80.022;2022-09-11T03:01:07;13;13;
74333;PMS5003;62753;40.394;-80.022;2022-09-11T03:03:35;15;14;
74333;PMS5003;62753;40.394;-80.022;2022-09-11T03:05:56;12;11;
74333;PMS5003;62753;40.394;-80.022;2022-09-11T03:08:22;14;12;
74333;PMS5003;62753;40.394;-80.022;2022-09-11T03:10:47;14;14;
74333;PMS5003;62753;40.394;-80.022;2022-09-11T03:13:13;15;13;
74333;PMS5003;62753;40.394;-80.022;2022-09-11T03:15:38;13;12;
74333;PMS5003;62753;40.394;-80.022;2022-09-11T03:18:03;17;13;
74333;PMS5003;62753;40.394;-80.022;2022-09-11T03:20:29;11;11;
74333;PMS5003;62753;40.394;-80.022;2022-09-11T03:22:54;12;12;
74333;PMS5003;62753;40.394;-80.022;2022-09-11T03:25:19;10;10;
74333;PMS5003;62753;40.394;-80.022;2022-09-11T03:27:45;11;10;
74333;PMS5003;62753;40.394;-80.022;2022-09-11T03:30:10;11;11;
74333;PMS5003;62753;40.394;-80.022;2022-09-11T03:32:35;12;12;
74333;PMS5003;62753;40.394;-80.022;2022-09-11T03:35:00;11;9;
74333;PMS5003;62753;40.394;-80.022;2022-09-11T03:37:26;8;8;
74333;PMS5003;62753;40.394;-80.022;2022-09-11T03:39:51;10;10;
74333;PMS5003;62753;40.394;-80.022;2022-09-11T03:42:16;9;8;
74333;PMS5003;62753;40.394;-80.022;2022-09-11T03:44:41;11;11;
74333;PMS5003;62753;40.394;-80.022;2022-09-11T03:47:06;14;12;
74333;PMS5003;62753;40.394;-80.022;2022-09-11T03:49:31;10;9;
74333;PMS5003;62753;40.394;-80.022;2022-09-11T03:51:57;10;10;
74333;PMS5003;62753;40.394;-80.022;2022-09-11T03:54:22;10;10;
74333;PMS5003;62753;40.394;-80.022;2022-09-11T03:56:47;11;10;
74333;PMS5003;62753;40.394;-80.022;2022-09-11T03:59:13;11;10;
74333;PMS5003;62753;40.394;-80.022;2022-09-11T04:01:37;10;10;
74333;PMS5003;62753;40.394;-80.022;2022-09-11T04:04:03;11;10;
74333;PMS5003;62753;40.394;-80.022;2022-09-11T04:06:28;9;9;
74333;PMS5003;62753;40.394;-80.022;2022-09-11T04:08:54;11;10;
74333;PMS5003;62753;40.394;-80.022;2022-09-11T04:11:19;10;10;
74333;PMS5003;62753;40.394;-80.022;2022-09-11T04:13:44;10;10;
74333;PMS5003;62753;40.394;-80.022;2022-09-11T04:16:10;10;10;
74333;PMS5003;62753;40.394;-80.022;2022-09-11T04:18:35;10;10;
74333;PMS5003;62753;40.394;-80.022;2022-09-11T04:21:02;9;9;
74333;PMS5003;62753;40.394;-80.022;2022-09-11T04:23:25;10;10;
74333;PMS5003;62753;40.394;-80.022;2022-09-11T04:25:50;9;8;
74333;PMS5003;62753;40.394;-80.022;2022-09-11T04:28:16;9;8;
74333;PMS5003;62753;40.394;-80.022;2022-09-11T04:30:41;9;9;
74333;PMS5003;62753;40.394;-80.022;2022-09-11T04:33:06;7;7;
74333;PMS5003;62753;40.394;-80.022;2022-09-11T04:35:31;9;8;
74333;PMS5003;62753;40.394;-80.022;2022-09-11T04:37:57;8;7;
74333;PMS5003;62753;40.394;-80.022;2022-09-11T04:40:22;7;7;
74333;PMS5003;62753;40.394;-80.022;2022-09-11T04:42:47;10;10;
74333;PMS5003;62753;40.394;-80.022;2022-09-11T04:45:13;11;10;
74333;PMS5003;62753;40.394;-80.022;2022-09-11T04:47:37;12;11;
74333;PMS5003;62753;40.394;-80.022;2022-09-11T04:50:03;9;8;
74333;PMS5003;62753;40.394;-80.022;2022-09-11T04:52:28;9;9;
74333;PMS5003;62753;40.394;-80.022;2022-09-11T04:54:53;9;9;
74333;PMS5003;62753;40.394;-80.022;2022-09-11T04:57:19;13;12;
74333;PMS5003;62753;40.394;-80.022;2022-09-11T04:59:43;12;11;
74333;PMS5003;62753;40.394;-80.022;2022-09-11T05:02:09;11;10;
74333;PMS5003;62753;40.394;-80.022;2022-09-11T05:04:34;9;9;
74333;PMS5003;62753;40.394;-80.022;2022-09-11T05:06:59;10;9;
74333;PMS5003;62753;40.394;-80.022;2022-09-11T05:09:25;10;9;
74333;PMS5003;62753;40.394;-80.022;2022-09-11T05:11:49;10;9;
74333;PMS5003;62753;40.394;-80.022;2022-09-11T05:14:15;10;10;
74333;PMS5003;62753;40.394;-80.022;2022-09-11T05:16:40;10;10;
74333;PMS5003;62753;40.394;-80.022;2022-09-11T05:19:05;10;10;
74333;PMS5003;62753;40.394;-80.022;2022-09-11T05:21:31;12;12;
74333;PMS5003;62753;40.394;-80.022;2022-09-11T05:23:57;11;10;
74333;PMS5003;62753;40.394;-80.022;2022-09-11T05:26:22;11;10;
74333;PMS5003;62753;40.394;-80.022;2022-09-11T05:28:46;12;11;
74333;PMS5003;62753;40.394;-80.022;2022-09-11T05:31:12;9;9;
74333;PMS5003;62753;40.394;-80.022;2022-09-11T05:33:37;9;8;
74333;PMS5003;62753;40.394;-80.022;2022-09-11T05:36:03;12;11;
74333;PMS5003;62753;40.394;-80.022;2022-09-11T05:38:27;12;12;
74333;PMS5003;62753;40.394;-80.022;2022-09-11T05:40:52;11;10;
74333;PMS5003;62753;40.394;-80.022;2022-09-11T05:43:18;12;12;
74333;PMS5003;62753;40.394;-80.022;2022-09-11T05:45:43;12;10;
74333;PMS5003;62753;40.394;-80.022;2022-09-11T05:48:09;12;11;
74333;PMS5003;62753;40.394;-80.022;2022-09-11T05:50:34;13;13;
74333;PMS5003;62753;40.394;-80.022;2022-09-11T05:52:59;13;11;
74333;PMS5003;62753;40.394;-80.022;2022-09-11T05:55:24;10;10;
74333;PMS5003;62753;40.394;-80.022;2022-09-11T05:57:50;14;13;
74333;PMS5003;62753;40.394;-80.022;2022-09-11T06:00:15;15;13;
74333;PMS5003;62753;40.394;-80.022;2022-09-11T06:02:40;12;12;
74333;PMS5003;62753;40.394;-80.022;2022-09-11T06:05:05;10;9;
74333;PMS5003;62753;40.394;-80.022;2022-09-11T06:07:30;10;10;
74333;PMS5003;62753;40.394;-80.022;2022-09-11T06:09:56;14;12;
74333;PMS5003;62753;40.394;-80.022;2022-09-11T06:12:22;13;13;
74333;PMS5003;62753;40.394;-80.022;2022-09-11T06:14:47;13;12;
74333;PMS5003;62753;40.394;-80.022;2022-09-11T06:17:12;15;15;
74333;PMS5003;62753;40.394;-80.022;2022-09-11T06:19:38;16;15;
74333;PMS5003;62753;40.394;-80.022;2022-09-11T06:22:04;17;16;
74333;PMS5003;62753;40.394;-80.022;2022-09-11T06:24:29;14;14;
74333;PMS5003;62753;40.394;-80.022;2022-09-11T06:26:55;14;13;
74333;PMS5003;62753;40.394;-80.022;2022-09-11T06:29:20;17;16;
74333;PMS5003;62753;40.394;-80.022;2022-09-11T06:31:45;18;18;
74333;PMS5003;62753;40.394;-80.022;2022-09-11T06:34:11;19;18;
74333;PMS5003;62753;40.394;-80.022;2022-09-11T06:36:36;24;20;
74333;PMS5003;62753;40.394;-80.022;2022-09-11T06:39:01;19;18;
74333;PMS5003;62753;40.394;-80.022;2022-09-11T06:41:27;24;21;
74333;PMS5003;62753;40.394;-80.022;2022-09-11T06:43:52;17;16;
74333;PMS5003;62753;40.394;-80.022;2022-09-11T06:46:19;14;14;
74333;PMS5003;62753;40.394;-80.022;2022-09-11T06:48:44;14;13;
74333;PMS5003;62753;40.394;-80.022;2022-09-11T06:51:09;17;16;
74333;PMS5003;62753;40.394;-80.022;2022-09-11T06:53:34;16;16;
74333;PMS5003;62753;40.394;-80.022;2022-09-11T06:55:59;17;17;
74333;PMS5003;62753;40.394;-80.022;2022-09-11T06:58:25;18;17;
74333;PMS5003;62753;40.394;-80.022;2022-09-11T07:00:50;19;19;
74333;PMS5003;62753;40.394;-80.022;2022-09-11T07:03:15;18;18;
74333;PMS5003;62753;40.394;-80.022;2022-09-11T07:05:44;22;17;
74333;PMS5003;62753;40.394;-80.022;2022-09-11T07:08:06;20;20;
74333;PMS5003;62753;40.394;-80.022;2022-09-11T07:10:32;20;17;
74333;PMS5003;62753;40.394;-80.022;2022-09-11T07:12:57;18;17;
74333;PMS5003;62753;40.394;-80.022;2022-09-11T07:15:23;19;19;
74333;PMS5003;62753;40.394;-80.022;2022-09-11T07:17:49;17;16;
74333;PMS5003;62753;40.394;-80.022;2022-09-11T07:20:14;19;19;
74333;PMS5003;62753;40.394;-80.022;2022-09-11T07:22:40;17;17;
74333;PMS5003;62753;40.394;-80.022;2022-09-11T07:25:05;23;21;
74333;PMS5003;62753;40.394;-80.022;2022-09-11T07:27:30;20;19;
74333;PMS5003;62753;40.394;-80.022;2022-09-11T07:29:55;17;17;
74333;PMS5003;62753;40.394;-80.022;2022-09-11T07:32:21;20;19;
74333;PMS5003;62753;40.394;-80.022;2022-09-11T07:34:47;16;16;
74333;PMS5003;62753;40.394;-80.022;2022-09-11T07:37:12;17;15;
74333;PMS5003;62753;40.394;-80.022;2022-09-11T07:39:37;19;17;
74333;PMS5003;62753;40.394;-80.022;2022-09-11T07:42:03;17;17;
74333;PMS5003;62753;40.394;-80.022;2022-09-11T07:44:28;17;16;
74333;PMS5003;62753;40.394;-80.022;2022-09-11T07:46:55;14;14;
74333;PMS5003;62753;40.394;-80.022;2022-09-11T07:49:19;14;14;
74333;PMS5003;62753;40.394;-80.022;2022-09-11T07:51:45;13;13;
74333;PMS5003;62753;40.394;-80.022;2022-09-11T07:54:10;13;13;
74333;PMS5003;62753;40.394;-80.022;2022-09-11T07:56:35;14;14;
74333;PMS5003;62753;40.394;-80.022;2022-09-11T07:59:01;12;12;
74333;PMS5003;62753;40.394;-80.022;2022-09-11T08:01:26;13;13;
74333;PMS5003;62753;40.394;-80.022;2022-09-11T08:03:52;12;11;
74333;PMS5003;62753;40.394;-80.022;2022-09-11T08:06:16;12;12;
74333;PMS5003;62753;40.394;-80.022;2022-09-11T08:08:41;11;11;
74333;PMS5003;62753;40.394;-80.022;2022-09-11T08:11:07;11;11;
74333;PMS5003;62753;40.394;-80.022;2022-09-11T08:13:32;11;10;
74333;PMS5003;62753;40.394;-80.022;2022-09-11T08:15:57;12;12;
74333;PMS5003;62753;40.394;-80.022;2022-09-11T08:18:22;13;12;
74333;PMS5003;62753;40.394;-80.022;2022-09-11T08:20:47;11;11;
74333;PMS5003;62753;40.394;-80.022;2022-09-11T08:23:14;15;14;
74333;PMS5003;62753;40.394;-80.022;2022-09-11T08:25:38;15;15;
74333;PMS5003;62753;40.394;-80.022;2022-09-11T08:28:04;14;14;
74333;PMS5003;62753;40.394;-80.022;2022-09-11T08:30:31;13;13;
74333;PMS5003;62753;40.394;-80.022;2022-09-11T08:32:54;13;13;
74333;PMS5003;62753;40.394;-80.022;2022-09-11T08:35:19;14;14;
74333;PMS5003;62753;40.394;-80.022;2022-09-11T08:37:45;14;13;
74333;PMS5003;62753;40.394;-80.022;2022-09-11T08:40:10;14;13;
74333;PMS5003;62753;40.394;-80.022;2022-09-11T08:42:35;14;14;
74333;PMS5003;62753;40.394;-80.022;2022-09-11T08:45:00;15;15;
74333;PMS5003;62753;40.394;-80.022;2022-09-11T08:47:26;15;15;
74333;PMS5003;62753;40.394;-80.022;2022-09-11T08:49:52;12;12;
74333;PMS5003;62753;40.394;-80.022;2022-09-11T08:52:16;15;15;
74333;PMS5003;62753;40.394;-80.022;2022-09-11T08:54:41;15;15;
74333;PMS5003;62753;40.394;-80.022;2022-09-11T08:57:10;14;14;
74333;PMS5003;62753;40.394;-80.022;2022-09-11T08:59:36;14;14;
74333;PMS5003;62753;40.394;-80.022;2022-09-11T09:01:59;15;14;
74333;PMS5003;62753;40.394;-80.022;2022-09-11T09:04:29;13;12;
74333;PMS5003;62753;40.394;-80.022;2022-09-11T09:06:51;12;12;
74333;PMS5003;62753;40.394;-80.022;2022-09-11T09:09:16;15;13;
74333;PMS5003;62753;40.394;-80.022;2022-09-11T09:11:39;12;12;
74333;PMS5003;62753;40.394;-80.022;2022-09-11T09:14:08;13;13;
74333;PMS5003;62753;40.394;-80.022;2022-09-11T09:16:31;13;13;
74333;PMS5003;62753;40.394;-80.022;2022-09-11T09:18:55;13;13;
74333;PMS5003;62753;40.394;-80.022;2022-09-11T09:21:20;14;14;
74333;PMS5003;62753;40.394;-80.022;2022-09-11T09:23:45;15;15;
74333;PMS5003;62753;40.394;-80.022;2022-09-11T09:26:10;11;11;
74333;PMS5003;62753;40.394;-80.022;2022-09-11T09:28:37;14;12;
74333;PMS5003;62753;40.394;-80.022;2022-09-11T09:31:01;13;12;
74333;PMS5003;62753;40.394;-80.022;2022-09-11T09:33:27;13;13;
74333;PMS5003;62753;40.394;-80.022;2022-09-11T09:35:51;13;13;
74333;PMS5003;62753;40.394;-80.022;2022-09-11T09:38:16;14;13;
74333;PMS5003;62753;40.394;-80.022;2022-09-11T09:40:42;15;14;
74333;PMS5003;62753;40.394;-80.022;2022-09-11T09:43:10;14;13;
74333;PMS5003;62753;40.394;-80.022;2022-09-11T09:45:33;16;16;
74333;PMS5003;62753;40.394;-80.022;2022-09-11T09:47:56;13;13;
74333;PMS5003;62753;40.394;-80.022;2022-09-11T09:50:23;14;14;
74333;PMS5003;62753;40.394;-80.022;2022-09-11T09:52:47;14;12;
74333;PMS5003;62753;40.394;-80.022;2022-09-11T09:55:13;13;13;
74333;PMS5003;62753;40.394;-80.022;2022-09-11T09:57:38;13;12;
74333;PMS5003;62753;40.394;-80.022;2022-09-11T10:00:04;12;12;
74333;PMS5003;62753;40.394;-80.022;2022-09-11T10:02:31;13;12;
74333;PMS5003;62753;40.394;-80.022;2022-09-11T10:04:57;12;11;
74333;PMS5003;62753;40.394;-80.022;2022-09-11T10:07:19;11;10;
74333;PMS5003;62753;40.394;-80.022;2022-09-11T10:09:44;12;12;
74333;PMS5003;62753;40.394;-80.022;2022-09-11T10:12:19;10;10;
74333;PMS5003;62753;40.394;-80.022;2022-09-11T10:14:37;9;9;
74333;PMS5003;62753;40.394;-80.022;2022-09-11T10:17:00;9;9;
74333;PMS5003;62753;40.394;-80.022;2022-09-11T10:21:50;7;7;
74333;PMS5003;62753;40.394;-80.022;2022-09-11T10:24:20;9;8;
74333;PMS5003;62753;40.394;-80.022;2022-09-11T10:26:41;7;7;
74333;PMS5003;62753;40.394;-80.022;2022-09-11T10:29:06;9;9;
74333;PMS5003;62753;40.394;-80.022;2022-09-11T10:31:31;8;8;
74333;PMS5003;62753;40.394;-80.022;2022-09-11T10:33:56;9;9;
74333;PMS5003;62753;40.394;-80.022;2022-09-11T10:36:22;7;7;
74333;PMS5003;62753;40.394;-80.022;2022-09-11T10:38:46;9;8;
74333;PMS5003;62753;40.394;-80.022;2022-09-11T10:41:14;7;7;
74333;PMS5003;62753;40.394;-80.022;2022-09-11T10:43:41;8;7;
74333;PMS5003;62753;40.394;-80.022;2022-09-11T10:46:03;8;8;
74333;PMS5003;62753;40.394;-80.022;2022-09-11T10:48:27;6;6;
74333;PMS5003;62753;40.394;-80.022;2022-09-11T10:50:52;9;8;
74333;PMS5003;62753;40.394;-80.022;2022-09-11T10:53:18;6;6;
74333;PMS5003;62753;40.394;-80.022;2022-09-11T10:55:45;8;7;
74333;PMS5003;62753;40.394;-80.022;2022-09-11T10:58:09;7;7;
74333;PMS5003;62753;40.394;-80.022;2022-09-11T11:00:33;8;7;
74333;PMS5003;62753;40.394;-80.022;2022-09-11T11:02:59;6;6;
74333;PMS5003;62753;40.394;-80.022;2022-09-11T11:05:26;8;7;
74333;PMS5003;62753;40.394;-80.022;2022-09-11T11:10:18;7;7;
74333;PMS5003;62753;40.394;-80.022;2022-09-11T11:12:42;5;5;
74333;PMS5003;62753;40.394;-80.022;2022-09-11T11:17:31;6;6;
74333;PMS5003;62753;40.394;-80.022;2022-09-11T11:19:57;5;5;
74333;PMS5003;62753;40.394;-80.022;2022-09-11T11:22:23;7;7;
74333;PMS5003;62753;40.394;-80.022;2022-09-11T11:24:48;7;6;
74333;PMS5003;62753;40.394;-80.022;2022-09-11T11:29:42;6;6;
74333;PMS5003;62753;40.394;-80.022;2022-09-11T11:32:06;6;6;
74333;PMS5003;62753;40.394;-80.022;2022-09-11T11:34:30;6;6;
74333;PMS5003;62753;40.394;-80.022;2022-09-11T11:36:52;5;5;
74333;PMS5003;62753;40.394;-80.022;2022-09-11T11:39:17;6;6;
74333;PMS5003;62753;40.394;-80.022;2022-09-11T11:41:42;5;4;
74333;PMS5003;62753;40.394;-80.022;2022-09-11T11:44:08;6;6;
74333;PMS5003;62753;40.394;-80.022;2022-09-11T11:46:33;5;5;
74333;PMS5003;62753;40.394;-80.022;2022-09-11T11:48:58;5;4;
74333;PMS5003;62753;40.394;-80.022;2022-09-11T11:51:22;7;5;
74333;PMS5003;62753;40.394;-80.022;2022-09-11T11:53:49;4;4;
74333;PMS5003;62753;40.394;-80.022;2022-09-11T11:56:13;5;4;
74333;PMS5003;62753;40.394;-80.022;2022-09-11T11:58:40;5;5;
74333;PMS5003;62753;40.394;-80.022;2022-09-11T12:01:03;4;4;
74333;PMS5003;62753;40.394;-80.022;2022-09-11T12:03:31;5;4;
74333;PMS5003;62753;40.394;-80.022;2022-09-11T12:05:53;4;3;
74333;PMS5003;62753;40.394;-80.022;2022-09-11T12:08:18;3;3;
74333;PMS5003;62753;40.394;-80.022;2022-09-11T12:10:44;4;4;
74333;PMS5003;62753;40.394;-80.022;2022-09-11T12:13:10;4;3;
74333;PMS5003;62753;40.394;-80.022;2022-09-11T12:15:33;3;3;
74333;PMS5003;62753;40.394;-80.022;2022-09-11T12:18:00;4;4;
74333;PMS5003;62753;40.394;-80.022;2022-09-11T12:20:29;3;3;
74333;PMS5003;62753;40.394;-80.022;2022-09-11T12:22:49;3;3;
74333;PMS5003;62753;40.394;-80.022;2022-09-11T12:30:08;4;3;
74333;PMS5003;62753;40.394;-80.022;2022-09-11T12:34:57;4;4;
74333;PMS5003;62753;40.394;-80.022;2022-09-11T12:37:22;3;3;
74333;PMS5003;62753;40.394;-80.022;2022-09-11T12:39:47;4;4;
74333;PMS5003;62753;40.394;-80.022;2022-09-11T12:47:04;4;3;
74333;PMS5003;62753;40.394;-80.022;2022-09-11T12:49:26;4;4;
74333;PMS5003;62753;40.394;-80.022;2022-09-11T12:51:52;6;6;
74333;PMS5003;62753;40.394;-80.022;2022-09-11T12:54:16;4;4;
74333;PMS5003;62753;40.394;-80.022;2022-09-11T12:56:44;5;5;
74333;PMS5003;62753;40.394;-80.022;2022-09-11T12:59:06;4;4;
74333;PMS5003;62753;40.394;-80.022;2022-09-11T13:01:33;4;4;
74333;PMS5003;62753;40.394;-80.022;2022-09-11T13:03:57;4;4;
74333;PMS5003;62753;40.394;-80.022;2022-09-11T13:06:22;6;6;
74333;PMS5003;62753;40.394;-80.022;2022-09-11T13:08:48;5;4;
74333;PMS5003;62753;40.394;-80.022;2022-09-11T13:13:38;7;6;
74333;PMS5003;62753;40.394;-80.022;2022-09-11T13:18:29;6;6;
74333;PMS5003;62753;40.394;-80.022;2022-09-11T13:20:57;4;4;
74333;PMS5003;62753;40.394;-80.022;2022-09-11T13:23:18;5;5;
74333;PMS5003;62753;40.394;-80.022;2022-09-11T13:25:44;5;5;
74333;PMS5003;62753;40.394;-80.022;2022-09-11T13:28:10;4;4;
74333;PMS5003;62753;40.394;-80.022;2022-09-11T13:30:51;3;3;
74333;PMS5003;62753;40.394;-80.022;2022-09-11T13:33:01;3;3;
74333;PMS5003;62753;40.394;-80.022;2022-09-11T13:35:25;3;3;
74333;PMS5003;62753;40.394;-80.022;2022-09-11T13:37:51;2;2;
74333;PMS5003;62753;40.394;-80.022;2022-09-11T13:40:17;3;3;
74333;PMS5003;62753;40.394;-80.022;2022-09-11T13:42:39;2;2;
74333;PMS5003;62753;40.394;-80.022;2022-09-11T13:45:05;2;2;
74333;PMS5003;62753;40.394;-80.022;2022-09-11T13:47:30;4;3;
74333;PMS5003;62753;40.394;-80.022;2022-09-11T13:49:56;2;2;
74333;PMS5003;62753;40.394;-80.022;2022-09-11T13:52:20;3;3;
74333;PMS5003;62753;40.394;-80.022;2022-09-11T13:54:46;3;3;
74333;PMS5003;62753;40.394;-80.022;2022-09-11T13:57:13;3;3;
74333;PMS5003;62753;40.394;-80.022;2022-09-11T13:59:36;4;3;
74333;PMS5003;62753;40.394;-80.022;2022-09-11T14:02:01;4;4;
74333;PMS5003;62753;40.394;-80.022;2022-09-11T14:04:26;3;3;
74333;PMS5003;62753;40.394;-80.022;2022-09-11T14:06:51;3;3;
74333;PMS5003;62753;40.394;-80.022;2022-09-11T14:09:16;4;4;
74333;PMS5003;62753;40.394;-80.022;2022-09-11T14:11:41;4;4;
74333;PMS5003;62753;40.394;-80.022;2022-09-11T14:14:07;4;4;
74333;PMS5003;62753;40.394;-80.022;2022-09-11T14:16:32;3;3;
74333;PMS5003;62753;40.394;-80.022;2022-09-11T14:18:58;5;4;
74333;PMS5003;62753;40.394;-80.022;2022-09-11T14:21:22;4;4;
74333;PMS5003;62753;40.394;-80.022;2022-09-11T14:23:49;5;5;
74333;PMS5003;62753;40.394;-80.022;2022-09-11T14:26:14;4;4;
74333;PMS5003;62753;40.394;-80.022;2022-09-11T14:28:42;6;6;
74333;PMS5003;62753;40.394;-80.022;2022-09-11T14:31:04;5;4;
74333;PMS5003;62753;40.394;-80.022;2022-09-11T14:33:27;5;4;
74333;PMS5003;62753;40.394;-80.022;2022-09-11T14:35:53;3;3;
74333;PMS5003;62753;40.394;-80.022;2022-09-11T14:38:19;5;5;
74333;PMS5003;62753;40.394;-80.022;2022-09-11T14:40:45;4;4;
74333;PMS5003;62753;40.394;-80.022;2022-09-11T14:43:08;6;6;
74333;PMS5003;62753;40.394;-80.022;2022-09-11T14:45:33;5;5;
74333;PMS5003;62753;40.394;-80.022;2022-09-11T14:47:58;4;4;
74333;PMS5003;62753;40.394;-80.022;2022-09-11T14:50:24;6;6;
74333;PMS5003;62753;40.394;-80.022;2022-09-11T14:52:48;6;6;
74333;PMS5003;62753;40.394;-80.022;2022-09-11T14:55:14;6;6;
74333;PMS5003;62753;40.394;-80.022;2022-09-11T14:57:39;8;8;
74333;PMS5003;62753;40.394;-80.022;2022-09-11T15:00:04;6;6;
74333;PMS5003;62753;40.394;-80.022;2022-09-11T15:02:29;7;7;
74333;PMS5003;62753;40.394;-80.022;2022-09-11T15:04:54;5;5;
74333;PMS5003;62753;40.394;-80.022;2022-09-11T15:07:20;5;5;
74333;PMS5003;62753;40.394;-80.022;2022-09-11T15:09:45;6;6;
74333;PMS5003;62753;40.394;-80.022;2022-09-11T15:12:11;7;7;
74333;PMS5003;62753;40.394;-80.022;2022-09-11T15:14:36;7;7;
74333;PMS5003;62753;40.394;-80.022;2022-09-11T15:17:00;7;6;
74333;PMS5003;62753;40.394;-80.022;2022-09-11T15:19:25;7;6;
74333;PMS5003;62753;40.394;-80.022;2022-09-11T15:21:50;7;7;
74333;PMS5003;62753;40.394;-80.022;2022-09-11T15:24:16;7;7;
74333;PMS5003;62753;40.394;-80.022;2022-09-11T15:26:41;8;8;
74333;PMS5003;62753;40.394;-80.022;2022-09-11T15:29:06;8;8;
74333;PMS5003;62753;40.394;-80.022;2022-09-11T15:31:31;9;9;
74333;PMS5003;62753;40.394;-80.022;2022-09-11T15:33:56;10;9;
74333;PMS5003;62753;40.394;-80.022;2022-09-11T15:36:21;7;7;
74333;PMS5003;62753;40.394;-80.022;2022-09-11T15:38:49;8;8;
74333;PMS5003;62753;40.394;-80.022;2022-09-11T15:41:12;9;9;
74333;PMS5003;62753;40.394;-80.022;2022-09-11T15:43:37;10;10;
74333;PMS5003;62753;40.394;-80.022;2022-09-11T15:46:05;9;8;
74333;PMS5003;62753;40.394;-80.022;2022-09-11T15:48:27;9;9;
74333;PMS5003;62753;40.394;-80.022;2022-09-11T15:50:57;9;9;
74333;PMS5003;62753;40.394;-80.022;2022-09-11T15:53:17;10;10;
74333;PMS5003;62753;40.394;-80.022;2022-09-11T15:55:42;7;7;
74333;PMS5003;62753;40.394;-80.022;2022-09-11T15:58:07;9;9;
74333;PMS5003;62753;40.394;-80.022;2022-09-11T16:00:33;10;10;
74333;PMS5003;62753;40.394;-80.022;2022-09-11T16:02:58;10;9;
74333;PMS5003;62753;40.394;-80.022;2022-09-11T16:05:23;10;10;
74333;PMS5003;62753;40.394;-80.022;2022-09-11T16:07:48;10;10;
74333;PMS5003;62753;40.394;-80.022;2022-09-11T16:10:13;9;9;
74333;PMS5003;62753;40.394;-80.022;2022-09-11T16:12:38;8;8;